Time;durP1;ratioP1;P1;durP2;ratioP2;P2;SDS_P1;SDS_P2;PMS_P1;PMS_P2;Temp;Humidity;BMP_temperature;BMP_pressure;BME280_temperature;BME280_humidity;BME280_pressure;Samples;Min_cycle;Max_cycle;Signal;HPM_P1;HPM_P2
2022/07/27 00:01:48;;;;;;;8.70;1.33;;;13.70;59.10;;;;;;4135412;28;20118;-81
2022/07/27 00:04:07;;;;;;;6.60;1.00;;;13.60;59.50;;;;;;4140339;28;20467;-80
2022/07/27 00:06:26;;;;;;;6.55;1.10;;;13.60;59.80;;;;;;4142474;28;20133;-82
2022/07/27 00:08:45;;;;;;;5.70;1.20;;;13.60;59.60;;;;;;4138515;28;20037;-82
2022/07/27 00:11:04;;;;;;;11.00;1.38;;;13.60;59.90;;;;;;4122279;28;20128;-80
2022/07/27 00:13:23;;;;;;;8.50;1.02;;;13.50;59.90;;;;;;4129593;28;20056;-81
2022/07/27 00:15:43;;;;;;;11.73;1.15;;;13.50;60.00;;;;;;4136922;28;20121;-80
2022/07/27 00:18:02;;;;;;;5.40;0.93;;;13.50;60.10;;;;;;4132943;28;20121;-80
2022/07/27 00:20:21;;;;;;;9.07;1.30;;;13.50;60.20;;;;;;4133354;28;20049;-81
2022/07/27 00:22:41;;;;;;;5.82;1.23;;;13.50;60.40;;;;;;4135453;28;20051;-81
2022/07/27 00:25:00;;;;;;;10.57;1.25;;;13.50;60.50;;;;;;4133938;28;20045;-82
2022/07/27 00:27:19;;;;;;;6.18;1.30;;;13.50;60.40;;;;;;4123281;28;20044;-82
2022/07/27 00:29:39;;;;;;;7.63;1.17;;;13.40;60.50;;;;;;4130130;28;20891;-81
2022/07/27 00:31:58;;;;;;;7.20;1.25;;;13.40;60.50;;;;;;4119495;28;20051;-82
2022/07/27 00:34:17;;;;;;;6.10;1.02;;;13.40;60.60;;;;;;4126036;28;20181;-83
2022/07/27 00:36:37;;;;;;;5.10;0.63;;;13.40;60.70;;;;;;4114501;28;20041;-83
2022/07/27 00:38:56;;;;;;;5.95;0.80;;;13.30;60.70;;;;;;4130793;28;20678;-81
2022/07/27 00:41:16;;;;;;;7.65;0.98;;;13.40;60.90;;;;;;4119519;28;20196;-80
2022/07/27 00:43:50;;;;;;;7.35;1.10;;;13.30;60.90;;;;;;4130692;28;20057;-81
2022/07/27 00:46:09;;;;;;;4.65;0.70;;;13.40;61.30;;;;;;4132523;28;20411;-81
2022/07/27 00:48:29;;;;;;;8.02;1.10;;;13.30;61.10;;;;;;4133325;28;20157;-81
2022/07/27 00:50:48;;;;;;;7.82;1.10;;;13.30;61.00;;;;;;4116072;28;20033;-81
2022/07/27 00:53:09;;;;;;;6.40;1.40;;;13.40;61.30;;;;;;4131379;28;20407;-81
2022/07/27 00:55:28;;;;;;;6.80;1.45;;;13.30;61.20;;;;;;4130421;28;20874;-81
2022/07/27 00:57:48;;;;;;;7.03;1.13;;;13.40;61.20;;;;;;4119536;28;20061;-82
2022/07/27 01:00:08;;;;;;;5.85;1.10;;;13.40;61.10;;;;;;4132637;28;20041;-81
2022/07/27 01:02:27;;;;;;;6.53;1.38;;;13.40;61.00;;;;;;4135114;28;20133;-81
2022/07/27 01:04:46;;;;;;;11.93;1.50;;;13.40;60.90;;;;;;4118319;28;20519;-80
2022/07/27 01:07:06;;;;;;;11.02;1.42;;;13.40;60.90;;;;;;4131918;28;20622;-81
2022/07/27 01:12:05;;;;;;;15.30;1.40;;;13.40;60.80;;;;;;4133070;28;20037;-82
2022/07/27 01:14:24;;;;;;;10.18;1.58;;;13.40;60.70;;;;;;4133910;28;20036;-82
2022/07/27 01:16:43;;;;;;;7.55;1.08;;;13.40;60.60;;;;;;4131454;28;20522;-81
2022/07/27 01:19:03;;;;;;;6.53;1.02;;;13.50;60.70;;;;;;4133698;28;20566;-81
2022/07/27 01:21:22;;;;;;;13.77;1.63;;;13.40;60.60;;;;;;4131933;28;20037;-81
2022/07/27 01:23:41;;;;;;;10.10;1.70;;;13.40;60.50;;;;;;4132045;28;20075;-81
2022/07/27 01:26:02;;;;;;;11.70;1.42;;;13.50;60.40;;;;;;4133305;28;20041;-82
2022/07/27 01:28:21;;;;;;;6.35;1.08;;;13.50;60.30;;;;;;4131414;28;20037;-81
2022/07/27 01:30:40;;;;;;;9.10;1.15;;;13.50;60.30;;;;;;4137933;28;20084;-83
2022/07/27 01:33:07;;;;;;;11.70;1.48;;;13.50;60.10;;;;;;4133998;28;20044;-80
2022/07/27 01:35:26;;;;;;;10.57;1.77;;;13.50;60.00;;;;;;4130453;28;20120;-81
2022/07/27 01:37:46;;;;;;;11.15;1.30;;;13.50;59.80;;;;;;4134194;28;20102;-80
2022/07/27 01:40:06;;;;;;;6.85;1.02;;;13.50;59.70;;;;;;4139887;28;20052;-81
2022/07/27 01:42:25;;;;;;;9.50;1.10;;;13.50;59.50;;;;;;4133437;28;20170;-83
2022/07/27 01:44:44;;;;;;;9.38;1.50;;;13.50;59.50;;;;;;4127583;28;20099;-81
2022/07/27 01:47:03;;;;;;;7.78;1.23;;;13.50;59.40;;;;;;4133348;28;20045;-83
2022/07/27 01:49:23;;;;;;;12.00;1.23;;;13.50;59.30;;;;;;4133515;28;20030;-81
2022/07/27 01:51:42;;;;;;;8.65;0.93;;;13.50;59.20;;;;;;4138374;28;20091;-82
2022/07/27 01:54:01;;;;;;;5.32;0.82;;;13.50;59.10;;;;;;4134634;28;20044;-82
2022/07/27 01:56:20;;;;;;;6.32;1.02;;;13.50;58.80;;;;;;4117309;28;20050;-82
2022/07/27 01:58:41;;;;;;;7.32;0.90;;;13.50;58.70;;;;;;4130704;28;20041;-83
2022/07/27 02:01:00;;;;;;;4.70;1.00;;;13.40;58.50;;;;;;4136328;28;20061;-82
2022/07/27 02:03:19;;;;;;;8.63;1.30;;;13.40;58.30;;;;;;4122476;28;20799;-82
2022/07/27 02:05:39;;;;;;;8.48;1.30;;;13.40;58.10;;;;;;4133437;28;20037;-83
2022/07/27 02:07:58;;;;;;;5.85;0.90;;;13.40;58.00;;;;;;4131269;28;20112;-81
2022/07/27 02:10:17;;;;;;;9.10;1.13;;;13.40;57.90;;;;;;4133893;28;20069;-81
2022/07/27 02:12:37;;;;;;;7.03;1.25;;;13.40;57.80;;;;;;4139338;28;20133;-81
2022/07/27 02:14:57;;;;;;;8.23;1.08;;;13.40;58.00;;;;;;4131366;28;20103;-82
2022/07/27 02:17:16;;;;;;;8.13;0.82;;;13.40;57.70;;;;;;4125688;28;20145;-81
2022/07/27 02:19:35;;;;;;;8.93;1.13;;;13.40;57.70;;;;;;4126500;28;20045;-82
2022/07/27 02:21:54;;;;;;;4.93;1.10;;;13.40;57.80;;;;;;4134435;28;20065;-82
2022/07/27 02:24:13;;;;;;;7.22;1.30;;;13.40;57.80;;;;;;4137608;28;20076;-82
2022/07/27 02:26:32;;;;;;;6.07;1.02;;;13.30;57.70;;;;;;4132171;28;20088;-83
2022/07/27 02:28:51;;;;;;;4.90;0.80;;;13.40;57.70;;;;;;4135807;28;20045;-82
2022/07/27 02:31:10;;;;;;;10.52;1.00;;;13.40;57.80;;;;;;4134369;28;20088;-81
2022/07/27 02:33:29;;;;;;;15.15;1.60;;;13.40;57.80;;;;;;4124739;28;20065;-82
2022/07/27 02:35:48;;;;;;;9.13;1.05;;;13.30;57.80;;;;;;4128017;28;20045;-82
2022/07/27 02:38:07;;;;;;;6.32;1.15;;;13.30;57.80;;;;;;4132395;28;20067;-81
2022/07/27 02:40:27;;;;;;;6.85;1.10;;;13.30;58.00;;;;;;4132856;28;20045;-82
2022/07/27 02:42:46;;;;;;;13.65;1.40;;;13.30;58.00;;;;;;4131941;28;20045;-82
2022/07/27 02:45:06;;;;;;;13.40;1.30;;;13.30;58.10;;;;;;4121093;28;20784;-81
2022/07/27 02:47:25;;;;;;;7.95;1.10;;;13.30;58.30;;;;;;4125129;28;20040;-80
2022/07/27 02:49:45;;;;;;;8.88;1.40;;;13.30;58.40;;;;;;4117113;28;20190;-82
2022/07/27 02:52:05;;;;;;;8.10;1.52;;;13.30;58.60;;;;;;4119604;28;20042;-82
2022/07/27 02:54:25;;;;;;;8.80;1.05;;;13.30;58.80;;;;;;4133277;28;20044;-81
2022/07/27 02:56:44;;;;;;;6.93;1.30;;;13.30;59.00;;;;;;4130393;28;20060;-80
2022/07/27 02:59:03;;;;;;;11.60;1.17;;;13.30;59.30;;;;;;4129203;28;20048;-82
2022/07/27 03:01:22;;;;;;;12.13;1.52;;;13.30;59.30;;;;;;4131843;28;20149;-83
2022/07/27 03:03:41;;;;;;;7.95;0.88;;;13.30;59.50;;;;;;4119815;28;20053;-81
2022/07/27 03:06:01;;;;;;;7.38;1.15;;;13.30;59.60;;;;;;4132749;28;20099;-83
2022/07/27 03:08:20;;;;;;;7.53;1.30;;;13.30;59.90;;;;;;4135489;28;20048;-82
2022/07/27 03:10:39;;;;;;;14.13;1.52;;;13.30;60.00;;;;;;4130572;28;20041;-80
2022/07/27 03:12:59;;;;;;;14.65;1.17;;;13.30;60.30;;;;;;4138170;28;20128;-80
2022/07/27 03:15:18;;;;;;;7.80;1.35;;;13.30;60.60;;;;;;4136107;28;20096;-82
2022/07/27 03:17:37;;;;;;;12.88;1.65;;;13.30;60.60;;;;;;4121003;28;20126;-82
2022/07/27 03:19:56;;;;;;;9.32;1.60;;;13.30;60.80;;;;;;4132346;28;20069;-81
2022/07/27 03:22:15;;;;;;;5.85;0.98;;;13.30;61.00;;;;;;4126633;28;20049;-81
2022/07/27 03:24:35;;;;;;;8.10;1.17;;;13.30;61.10;;;;;;4124279;28;20041;-81
2022/07/27 03:26:54;;;;;;;13.90;1.42;;;13.30;61.30;;;;;;4138363;28;20037;-81
2022/07/27 03:29:13;;;;;;;11.02;1.30;;;13.30;61.40;;;;;;4138152;28;20082;-83
2022/07/27 03:31:32;;;;;;;8.73;0.95;;;13.30;61.40;;;;;;4135810;28;20044;-83
2022/07/27 03:33:52;;;;;;;12.60;1.45;;;13.30;61.60;;;;;;4139618;28;20083;-83
2022/07/27 03:36:11;;;;;;;10.30;1.17;;;13.30;61.60;;;;;;4138386;28;20045;-81
2022/07/27 03:38:30;;;;;;;7.97;1.42;;;13.30;61.60;;;;;;4135524;28;20041;-81
2022/07/27 03:40:49;;;;;;;10.25;1.60;;;13.30;61.60;;;;;;4135445;28;20033;-82
2022/07/27 03:43:08;;;;;;;6.60;1.02;;;13.30;61.60;;;;;;4130356;28;20049;-80
2022/07/27 03:45:28;;;;;;;12.32;1.55;;;13.30;61.60;;;;;;4136227;28;20045;-81
2022/07/27 03:47:47;;;;;;;10.27;1.25;;;13.30;61.60;;;;;;4136106;28;20072;-81
2022/07/27 03:50:06;;;;;;;12.52;1.55;;;13.40;61.70;;;;;;4134489;28;20190;-81
2022/07/27 03:52:25;;;;;;;13.25;1.67;;;13.40;61.70;;;;;;4134574;28;20396;-81
2022/07/27 03:54:46;;;;;;;9.38;1.17;;;13.40;61.70;;;;;;4132463;28;20057;-81
2022/07/27 03:57:05;;;;;;;10.93;1.25;;;13.40;61.70;;;;;;4135201;28;20045;-82
2022/07/27 03:59:24;;;;;;;16.48;1.45;;;13.40;61.80;;;;;;4124664;28;20045;-81
2022/07/27 04:01:43;;;;;;;8.05;1.02;;;13.40;61.80;;;;;;4124839;28;20109;-82
2022/07/27 04:04:02;;;;;;;12.77;1.33;;;13.40;61.70;;;;;;4137162;28;20040;-82
2022/07/27 04:06:22;;;;;;;7.90;1.15;;;13.40;61.90;;;;;;4141462;28;20072;-82
2022/07/27 04:08:41;;;;;;;5.53;0.90;;;13.40;61.70;;;;;;4135970;28;20156;-83
2022/07/27 04:11:00;;;;;;;6.78;1.42;;;13.40;61.80;;;;;;4137406;28;20034;-82
2022/07/27 04:13:20;;;;;;;8.35;1.50;;;13.40;61.90;;;;;;4122440;28;20873;-82
2022/07/27 04:15:39;;;;;;;10.50;1.23;;;13.50;61.90;;;;;;4142250;28;20080;-82
2022/07/27 04:17:58;;;;;;;13.77;1.67;;;13.50;61.90;;;;;;4138441;28;20060;-82
2022/07/27 04:20:18;;;;;;;6.28;1.60;;;13.50;61.80;;;;;;4140958;28;20400;-83
2022/07/27 04:22:37;;;;;;;7.22;1.27;;;13.50;61.80;;;;;;4140093;28;20637;-82
2022/07/27 04:24:56;;;;;;;7.78;1.08;;;13.50;61.80;;;;;;4139483;28;20053;-83
2022/07/27 04:27:15;;;;;;;5.65;1.25;;;13.50;61.80;;;;;;4145285;28;20032;-82
2022/07/27 04:29:34;;;;;;;6.40;0.93;;;13.50;62.50;;;;;;4144156;28;20040;-82
2022/07/27 04:31:53;;;;;;;8.18;1.10;;;13.50;61.60;;;;;;4139955;28;20106;-83
2022/07/27 04:34:12;;;;;;;11.15;1.35;;;13.60;61.60;;;;;;4136153;28;20526;-82
2022/07/27 04:36:32;;;;;;;10.30;1.50;;;13.60;61.40;;;;;;4136887;28;20056;-82
2022/07/27 04:38:51;;;;;;;7.28;1.60;;;13.60;61.40;;;;;;4136791;28;21124;-81
2022/07/27 04:41:11;;;;;;;9.13;1.25;;;13.60;61.30;;;;;;4143132;28;20041;-82
2022/07/27 04:43:31;;;;;;;13.40;1.27;;;13.50;60.90;;;;;;4139960;28;20072;-81
2022/07/27 04:45:50;;;;;;;10.02;1.08;;;13.50;61.00;;;;;;4137915;28;20109;-81
2022/07/27 04:48:10;;;;;;;7.80;0.80;;;13.60;61.00;;;;;;4122610;28;20038;-80
2022/07/27 04:50:29;;;;;;;13.18;1.40;;;13.60;61.10;;;;;;4140692;28;20153;-81
2022/07/27 04:52:49;;;;;;;5.70;1.20;;;13.60;61.10;;;;;;4142839;28;20061;-82
2022/07/27 04:55:08;;;;;;;9.55;1.42;;;13.60;61.20;;;;;;4138359;28;20100;-81
2022/07/27 04:57:27;;;;;;;9.00;1.45;;;13.60;61.20;;;;;;4119410;28;20048;-82
2022/07/27 04:59:47;;;;;;;10.77;1.75;;;13.60;61.20;;;;;;4134275;28;20077;-82
2022/07/27 05:02:06;;;;;;;9.75;1.60;;;13.60;61.20;;;;;;4142691;28;20117;-81
2022/07/27 05:04:25;;;;;;;6.70;1.13;;;13.60;61.30;;;;;;4139171;28;20048;-82
2022/07/27 05:06:45;;;;;;;12.00;1.65;;;13.70;61.40;;;;;;4134477;28;20057;-80
2022/07/27 05:09:05;;;;;;;5.18;0.90;;;13.70;61.30;;;;;;4122891;28;20062;-82
2022/07/27 05:11:24;;;;;;;6.85;1.15;;;13.70;61.30;;;;;;4138786;28;20069;-82
2022/07/27 05:13:43;;;;;;;12.50;1.40;;;13.70;61.30;;;;;;4136463;28;20583;-81
2022/07/27 05:16:03;;;;;;;7.72;1.35;;;13.80;61.30;;;;;;4140257;28;20065;-82
2022/07/27 05:18:24;;;;;;;13.52;1.42;;;13.80;61.10;;;;;;4140571;28;20530;-84
2022/07/27 05:20:43;;;;;;;13.00;1.35;;;13.80;61.10;;;;;;4138732;28;20099;-81
2022/07/27 05:23:02;;;;;;;8.60;1.48;;;13.80;60.90;;;;;;4141229;28;20049;-82
2022/07/27 05:25:24;;;;;;;13.93;1.50;;;13.80;60.80;;;;;;4143518;28;20918;-82
2022/07/27 05:27:43;;;;;;;10.23;1.50;;;13.90;60.80;;;;;;4132972;28;20061;-80
2022/07/27 05:30:05;;;;;;;6.63;1.00;;;13.80;60.70;;;;;;4132239;28;20100;-80
2022/07/27 05:32:24;;;;;;;9.95;1.73;;;13.80;60.10;;;;;;4139025;28;20044;-79
2022/07/27 05:34:44;;;;;;;12.10;1.30;;;13.90;59.90;;;;;;4141700;28;20045;-80
2022/07/27 05:37:04;;;;;;;13.38;1.23;;;13.90;60.00;;;;;;4126889;28;20045;-79
2022/07/27 05:39:23;;;;;;;6.70;1.10;;;13.90;60.20;;;;;;4125853;28;20105;-79
2022/07/27 05:41:43;;;;;;;7.90;1.50;;;13.90;60.80;;;;;;4136286;28;20070;-81
2022/07/27 05:44:02;;;;;;;9.48;1.20;;;13.80;61.10;;;;;;4124143;28;20077;-81
2022/07/27 05:46:22;;;;;;;10.57;1.55;;;13.90;61.40;;;;;;4132173;28;20530;-80
2022/07/27 05:48:41;;;;;;;11.05;1.58;;;13.80;61.50;;;;;;4122919;28;20041;-81
2022/07/27 05:51:00;;;;;;;8.77;1.33;;;13.80;61.60;;;;;;4137599;28;20080;-81
2022/07/27 05:53:20;;;;;;;16.52;1.75;;;13.70;61.60;;;;;;4130951;28;20037;-81
2022/07/27 05:55:39;;;;;;;10.98;1.15;;;13.70;61.70;;;;;;4118495;28;20104;-81
2022/07/27 05:57:58;;;;;;;12.63;1.95;;;13.80;61.80;;;;;;4136083;28;20040;-81
2022/07/27 06:00:18;;;;;;;13.75;1.40;;;13.70;61.70;;;;;;4129328;28;20053;-80
2022/07/27 06:02:38;;;;;;;9.32;1.48;;;13.80;61.40;;;;;;4131979;28;20101;-81
2022/07/27 06:04:57;;;;;;;12.70;1.58;;;13.70;61.20;;;;;;4141342;28;20558;-80
2022/07/27 06:09:55;;;;;;;5.40;1.58;;;13.80;61.30;;;;;;4138538;28;20926;-80
2022/07/27 06:12:14;;;;;;;5.85;1.48;;;13.80;61.20;;;;;;4124511;28;20145;-81
2022/07/27 06:14:33;;;;;;;5.22;1.23;;;13.80;61.00;;;;;;4121456;28;20090;-80
2022/07/27 06:16:53;;;;;;;9.57;1.30;;;13.80;60.80;;;;;;4134186;28;20111;-82
2022/07/27 06:19:12;;;;;;;8.65;1.27;;;13.90;60.80;;;;;;4142869;28;20041;-81
2022/07/27 06:21:31;;;;;;;8.75;1.40;;;13.90;60.30;;;;;;4131950;28;20056;-80
2022/07/27 06:23:51;;;;;;;7.75;1.17;;;13.90;60.10;;;;;;4124041;28;20117;-81
2022/07/27 06:26:11;;;;;;;8.18;1.45;;;14.00;60.00;;;;;;4144939;28;20157;-82
2022/07/27 06:28:31;;;;;;;10.30;1.63;;;14.00;59.80;;;;;;4134833;28;20123;-82
2022/07/27 06:30:52;;;;;;;11.27;1.42;;;14.10;59.70;;;;;;4124918;28;20050;-80
2022/07/27 06:33:12;;;;;;;10.57;1.02;;;14.10;58.80;;;;;;4138352;28;20045;-81
2022/07/27 06:35:31;;;;;;;7.38;1.38;;;14.10;58.40;;;;;;4132385;28;20040;-83
2022/07/27 06:37:51;;;;;;;10.70;1.33;;;14.10;58.30;;;;;;4137488;28;20539;-81
2022/07/27 06:40:12;;;;;;;11.85;1.20;;;14.20;58.50;;;;;;4136974;28;20117;-83
2022/07/27 06:42:32;;;;;;;6.28;1.00;;;14.20;58.10;;;;;;4140993;28;20084;-81
2022/07/27 06:44:51;;;;;;;5.30;1.08;;;14.30;57.70;;;;;;4135865;28;20044;-81
2022/07/27 06:47:10;;;;;;;5.53;1.00;;;14.30;57.90;;;;;;4137631;28;20087;-80
2022/07/27 06:49:29;;;;;;;7.28;1.65;;;14.40;57.50;;;;;;4130974;28;20083;-82
2022/07/27 06:51:48;;;;;;;7.95;1.13;;;14.40;57.30;;;;;;4138107;28;20050;-80
2022/07/27 06:54:07;;;;;;;11.80;1.30;;;14.50;56.90;;;;;;4119474;28;20046;-80
2022/07/27 06:56:27;;;;;;;11.95;1.30;;;14.50;56.40;;;;;;4132677;28;20049;-82
2022/07/27 06:58:46;;;;;;;8.65;1.27;;;14.50;56.70;;;;;;4134620;28;20045;-81
2022/07/27 07:01:06;;;;;;;6.95;1.33;;;14.60;56.60;;;;;;4138284;28;20068;-82
2022/07/27 07:03:25;;;;;;;10.57;1.25;;;14.60;56.50;;;;;;4116937;28;20093;-82
2022/07/27 07:05:45;;;;;;;10.35;1.20;;;14.70;56.50;;;;;;4132570;28;20041;-80
2022/07/27 07:08:10;;;;;;;12.77;1.20;;;14.70;56.50;;;;;;4139354;28;20037;-81
2022/07/27 07:10:30;;;;;;;7.82;1.30;;;14.80;56.50;;;;;;4122098;28;20057;-83
2022/07/27 07:12:54;;;;;;;7.90;1.25;;;14.80;55.90;;;;;;4127723;28;20041;-82
2022/07/27 07:15:15;;;;;;;9.18;1.00;;;14.90;55.00;;;;;;4132991;28;20469;-82
2022/07/27 07:17:35;;;;;;;6.22;1.13;;;14.90;54.90;;;;;;4131755;28;20106;-83
2022/07/27 07:19:54;;;;;;;6.20;0.75;;;14.90;54.40;;;;;;4135873;28;20056;-82
2022/07/27 07:22:14;;;;;;;6.63;0.70;;;14.90;54.40;;;;;;4138893;28;20044;-84
2022/07/27 07:24:33;;;;;;;9.77;1.30;;;14.90;54.60;;;;;;4118656;28;20074;-83
2022/07/27 07:26:52;;;;;;;5.95;1.08;;;14.90;54.90;;;;;;4134904;28;20452;-82
2022/07/27 07:29:11;;;;;;;5.63;0.80;;;14.90;55.40;;;;;;4138142;28;20033;-81
2022/07/27 07:31:32;;;;;;;7.30;0.88;;;14.90;55.80;;;;;;4135057;28;20092;-84
2022/07/27 07:33:52;;;;;;;6.00;0.85;;;14.90;55.90;;;;;;4127685;28;20427;-82
2022/07/27 07:36:12;;;;;;;4.63;1.35;;;15.00;56.00;;;;;;4138338;28;20092;-82
2022/07/27 07:38:32;;;;;;;8.27;0.98;;;15.00;55.90;;;;;;4136002;28;20607;-81
2022/07/27 07:40:52;;;;;;;5.30;1.10;;;14.90;55.80;;;;;;4141660;28;20068;-80
2022/07/27 07:43:13;;;;;;;7.45;0.93;;;15.00;56.10;;;;;;4139437;28;20771;-80
2022/07/27 07:45:36;;;;;;;2.10;0.60;;;15.00;56.40;;;;;;4140353;28;20126;-82
2022/07/27 07:47:56;;;;;;;5.07;0.93;;;15.00;56.60;;;;;;4122208;28;20064;-81
2022/07/27 07:50:17;;;;;;;7.03;0.75;;;15.00;57.10;;;;;;4143059;28;20091;-83
2022/07/27 07:52:37;;;;;;;6.65;1.10;;;15.00;57.30;;;;;;4135138;28;20028;-82
2022/07/27 07:54:57;;;;;;;7.50;0.90;;;15.00;57.50;;;;;;4117798;28;20037;-82
2022/07/27 07:57:16;;;;;;;10.02;1.23;;;15.00;57.70;;;;;;4137231;28;20255;-83
2022/07/27 07:59:36;;;;;;;4.55;0.80;;;14.90;57.40;;;;;;4140102;28;20087;-81
2022/07/27 08:01:56;;;;;;;6.93;1.00;;;14.90;57.10;;;;;;4137878;28;20710;-81
2022/07/27 08:04:15;;;;;;;11.55;1.23;;;15.00;57.00;;;;;;4139986;28;20046;-83
2022/07/27 08:06:35;;;;;;;3.92;1.00;;;15.00;56.70;;;;;;4140880;28;20085;-82
2022/07/27 08:08:54;;;;;;;6.82;1.05;;;15.00;56.70;;;;;;4138564;28;20529;-82
2022/07/27 08:11:14;;;;;;;9.05;1.05;;;15.00;56.10;;;;;;4135610;28;20095;-81
2022/07/27 08:13:33;;;;;;;4.40;0.90;;;15.00;55.50;;;;;;4137023;28;20761;-82
2022/07/27 08:15:52;;;;;;;8.27;1.23;;;15.10;55.20;;;;;;4131517;28;20124;-81
2022/07/27 08:18:13;;;;;;;3.47;0.95;;;15.10;54.90;;;;;;4130653;28;20045;-83
2022/07/27 08:20:33;;;;;;;9.20;1.02;;;15.20;55.00;;;;;;4133684;28;20759;-81
2022/07/27 08:22:53;;;;;;;11.48;1.00;;;15.20;54.80;;;;;;4127804;28;20049;-81
2022/07/27 08:25:12;;;;;;;7.63;1.13;;;15.20;54.60;;;;;;4137369;28;20388;-82
2022/07/27 08:27:32;;;;;;;6.43;1.10;;;15.30;54.40;;;;;;4131899;28;20069;-81
2022/07/27 08:29:51;;;;;;;6.80;1.13;;;15.30;54.50;;;;;;4116357;28;20048;-80
2022/07/27 08:32:10;;;;;;;7.53;1.08;;;15.30;54.30;;;;;;4132655;28;20050;-81
2022/07/27 08:34:29;;;;;;;7.15;1.60;;;15.40;54.50;;;;;;4116896;28;20098;-82
2022/07/27 08:36:49;;;;;;;6.47;1.17;;;15.40;54.40;;;;;;4127680;28;20085;-83
2022/07/27 08:39:08;;;;;;;9.63;1.00;;;15.40;53.90;;;;;;4130156;28;20097;-81
2022/07/27 08:41:29;;;;;;;6.38;0.98;;;15.50;54.10;;;;;;4131405;28;21782;-84
2022/07/27 08:43:48;;;;;;;9.02;1.23;;;15.50;53.90;;;;;;4129508;28;20608;-84
2022/07/27 08:46:09;;;;;;;7.90;0.98;;;15.50;53.90;;;;;;4133576;28;20134;-80
2022/07/27 08:48:30;;;;;;;8.77;1.17;;;15.50;53.80;;;;;;4129734;28;20120;-80
2022/07/27 08:50:50;;;;;;;7.25;0.95;;;15.50;53.90;;;;;;4135184;28;20057;-81
2022/07/27 08:53:11;;;;;;;8.80;1.20;;;15.60;54.20;;;;;;4131718;28;20435;-81
2022/07/27 08:55:34;;;;;;;9.40;0.95;;;15.60;54.30;;;;;;4116281;28;20045;-81
2022/07/27 08:57:53;;;;;;;7.47;1.30;;;15.60;54.50;;;;;;4128688;28;20117;-82
2022/07/27 09:00:13;;;;;;;11.32;1.23;;;15.60;54.50;;;;;;4120601;28;20787;-81
2022/07/27 09:02:34;;;;;;;6.03;1.20;;;15.60;54.50;;;;;;4138355;28;20073;-81
2022/07/27 09:04:56;;;;;;;8.68;1.50;;;15.60;54.30;;;;;;4142699;28;20122;-82
2022/07/27 09:07:30;;;;;;;9.63;1.00;;;15.60;54.20;;;;;;4134028;28;20125;-81
2022/07/27 09:09:53;;;;;;;6.00;0.82;;;15.60;54.10;;;;;;4137989;28;20037;-82
2022/07/27 09:12:15;;;;;;;10.70;1.07;;;15.70;54.40;;;;;;4128106;28;20808;-82
2022/07/27 09:14:38;;;;;;;6.68;0.90;;;15.70;54.60;;;;;;4142382;28;20072;-82
2022/07/27 09:16:58;;;;;;;3.63;0.80;;;15.70;54.20;;;;;;4138121;28;20144;-82
2022/07/27 09:19:20;;;;;;;5.63;0.73;;;15.70;54.10;;;;;;4140929;28;20249;-81
2022/07/27 09:21:43;;;;;;;4.80;0.80;;;15.70;53.90;;;;;;4128826;28;20604;-80
2022/07/27 09:24:05;;;;;;;5.97;0.88;;;15.80;53.90;;;;;;4135316;28;20091;-79
2022/07/27 09:26:28;;;;;;;4.97;1.42;;;15.80;53.80;;;;;;4121680;28;20045;-82
2022/07/27 09:28:54;;;;;;;7.45;1.02;;;15.80;53.80;;;;;;4135220;28;20045;-86
2022/07/27 09:31:18;;;;;;;6.82;0.82;;;15.80;54.00;;;;;;4127061;28;20045;-92
2022/07/27 09:33:55;;;;;;;5.97;1.02;;;15.70;54.60;;;;;;4127372;28;20037;-90
2022/07/27 09:36:35;;;;;;;6.47;1.10;;;15.70;55.50;;;;;;4134195;28;20037;-91
2022/07/27 09:39:19;;;;;;;13.43;1.33;;;15.70;55.50;;;;;;4145529;28;20041;-91
2022/07/27 09:42:07;;;;;;;6.03;0.80;;;15.70;55.90;;;;;;4141743;28;20069;-89
2022/07/27 09:44:42;;;;;;;10.90;1.17;;;15.60;56.20;;;;;;4155563;28;20053;-88
2022/07/27 09:47:38;;;;;;;8.65;1.08;;;15.60;56.50;;;;;;4135761;28;20858;-89
2022/07/27 09:50:27;;;;;;;8.90;1.52;;;15.60;56.50;;;;;;4125870;28;20516;-90
2022/07/27 09:52:49;;;;;;;6.13;1.13;;;15.60;56.20;;;;;;4036461;29;20408;-88
2022/07/27 09:55:43;;;;;;;7.25;1.23;;;15.60;56.20;;;;;;4052255;29;20845;-90
2022/07/27 10:00:56;;;;;;;6.13;1.35;;;15.60;56.20;;;;;;4057745;29;20163;-88
2022/07/27 10:03:16;;;;;;;4.43;1.08;;;15.70;56.10;;;;;;4059205;29;20050;-91
2022/07/27 10:05:55;;;;;;;10.00;1.42;;;15.70;56.10;;;;;;4066786;29;20088;-91
2022/07/27 10:08:33;;;;;;;9.90;1.23;;;15.70;56.30;;;;;;4054083;29;20043;-90
2022/07/27 10:10:56;;;;;;;12.73;1.40;;;15.80;55.80;;;;;;4049903;29;20097;-89
2022/07/27 10:13:18;;;;;;;11.95;1.48;;;15.80;55.00;;;;;;4043663;29;20051;-92
2022/07/27 10:16:12;;;;;;;5.78;1.20;;;15.90;54.90;;;;;;4045196;29;20043;-90
2022/07/27 10:19:13;;;;;;;9.40;1.48;;;15.90;55.30;;;;;;4017230;29;20116;-92
2022/07/27 10:21:42;;;;;;;9.02;1.13;;;16.00;55.00;;;;;;4025335;29;20044;-90
2022/07/27 10:24:08;;;;;;;8.55;1.42;;;16.10;54.80;;;;;;4009604;29;20457;-91
2022/07/27 10:26:40;;;;;;;9.90;1.42;;;16.20;54.80;;;;;;4025911;29;20092;-91
2022/07/27 10:32:03;;;;;;;7.32;1.40;;;16.20;53.60;;;;;;4068362;29;20115;-88
2022/07/27 10:34:42;;;;;;;6.93;1.25;;;16.20;53.30;;;;;;4056752;29;20594;-90
2022/07/27 10:37:22;;;;;;;8.20;1.15;;;16.20;53.20;;;;;;4073907;29;20131;-90
2022/07/27 10:40:32;;;;;;;6.43;1.30;;;16.20;53.70;;;;;;4075205;29;20083;-89
2022/07/27 10:42:30;;;;;;;7.10;1.08;;;16.30;54.20;;;;;;4077188;29;20032;-88
2022/07/27 10:45:22;;;;;;;;;;;16.40;54.10;;;;;;4069945;29;20119;-87
2022/07/27 10:47:45;;;;;;;7.03;1.98;;;16.40;54.00;;;;;;4053423;29;19922;-88
2022/07/27 10:50:24;;;;;;;6.97;1.45;;;16.50;53.70;;;;;;4041815;29;20078;-87
2022/07/27 10:52:52;;;;;;;7.60;1.35;;;16.60;53.70;;;;;;4053203;29;20028;-88
2022/07/27 10:55:28;;;;;;;10.55;1.42;;;16.60;53.50;;;;;;4060381;28;20096;-88
2022/07/27 10:58:08;;;;;;;6.75;1.10;;;16.70;53.10;;;;;;4101151;28;20107;-88
2022/07/27 11:00:50;;;;;;;4.90;0.93;;;16.70;52.50;;;;;;4102046;28;20031;-87
2022/07/27 11:03:22;;;;;;;6.97;1.35;;;16.70;52.50;;;;;;4081560;28;20027;-88
2022/07/27 11:06:06;;;;;;;8.88;1.20;;;16.80;52.00;;;;;;4076343;28;20534;-87
2022/07/27 11:08:30;;;;;;;11.30;1.55;;;16.80;51.80;;;;;;4077057;29;20533;-86
2022/07/27 11:10:52;;;;;;;9.45;1.83;;;16.80;51.70;;;;;;4085924;28;20496;-88
2022/07/27 11:13:12;;;;;;;11.82;1.50;;;16.80;52.40;;;;;;4082453;28;20027;-86
2022/07/27 11:15:13;;;;;;;11.80;1.38;;;16.80;52.80;;;;;;4084293;28;20579;-87
2022/07/27 11:17:20;;;;;;;11.98;1.42;;;16.80;53.00;;;;;;4068576;29;20038;-86
2022/07/27 11:19:22;;;;;;;9.68;1.27;;;16.80;53.20;;;;;;4084402;28;20047;-87
2022/07/27 11:21:32;;;;;;;8.68;1.20;;;16.80;53.40;;;;;;4096304;28;20396;-88
2022/07/27 11:23:33;;;;;;;8.52;1.25;;;16.80;53.50;;;;;;4088797;28;20192;-88
2022/07/27 11:25:34;;;;;;;7.38;1.30;;;16.80;53.10;;;;;;4130843;28;20030;-88
2022/07/27 11:27:50;;;;;;;7.63;0.90;;;16.80;53.40;;;;;;4121488;28;20033;-88
2022/07/27 11:29:51;;;;;;;8.52;1.42;;;16.90;53.20;;;;;;4129664;28;21168;-88
2022/07/27 11:31:56;;;;;;;8.63;1.42;;;16.90;52.90;;;;;;4133982;28;20031;-87
2022/07/27 11:34:02;;;;;;;22.40;1.75;;;16.90;52.60;;;;;;4132175;28;20922;-88
2022/07/27 11:36:05;;;;;;;7.97;1.60;;;16.90;52.30;;;;;;4117043;28;20922;-89
2022/07/27 11:38:07;;;;;;;11.93;1.60;;;16.90;52.40;;;;;;4135485;28;20044;-87
2022/07/27 11:40:11;;;;;;;6.80;1.27;;;16.90;52.70;;;;;;4114142;28;20042;-85
2022/07/27 11:42:13;;;;;;;7.72;1.52;;;16.90;52.70;;;;;;4126919;28;20042;-88
2022/07/27 11:44:19;;;;;;;7.07;1.35;;;16.90;52.80;;;;;;4124748;28;20057;-87
2022/07/27 11:46:28;;;;;;;5.72;0.73;;;17.00;52.70;;;;;;4131375;28;20026;-88
2022/07/27 11:48:29;;;;;;;4.63;1.10;;;16.90;51.80;;;;;;4124240;28;21036;-85
2022/07/27 11:50:29;;;;;;;6.00;1.08;;;17.00;51.50;;;;;;4124791;28;20041;-89
2022/07/27 11:52:30;;;;;;;7.28;0.82;;;16.90;50.80;;;;;;4113704;28;20030;-88
2022/07/27 11:54:32;;;;;;;6.78;1.38;;;16.90;51.00;;;;;;4131470;28;20067;-87
2022/07/27 11:56:35;;;;;;;12.57;1.67;;;16.90;50.80;;;;;;4131120;28;20484;-87
2022/07/27 11:58:59;;;;;;;8.88;1.42;;;16.80;50.50;;;;;;4123418;28;20402;-88
2022/07/27 12:01:00;;;;;;;10.52;1.20;;;16.80;50.60;;;;;;4128310;28;20957;-88
2022/07/27 12:03:04;;;;;;;11.27;1.55;;;16.80;50.90;;;;;;4114034;28;20444;-89
2022/07/27 12:05:10;;;;;;;8.10;1.17;;;16.80;51.10;;;;;;4109868;28;20041;-87
2022/07/27 12:07:22;;;;;;;5.05;1.08;;;16.80;50.70;;;;;;4117050;28;20053;-90
2022/07/27 12:09:23;;;;;;;7.68;1.13;;;16.70;50.50;;;;;;4127120;28;20419;-90
2022/07/27 12:11:45;;;;;;;10.88;1.30;;;16.70;51.00;;;;;;4130289;28;20054;-89
2022/07/27 12:13:46;;;;;;;5.43;1.13;;;16.70;51.10;;;;;;4124605;28;22792;-89
2022/07/27 12:15:56;;;;;;;5.00;0.88;;;16.70;50.80;;;;;;4105462;28;20033;-87
2022/07/27 12:18:08;;;;;;;9.20;1.30;;;16.70;50.80;;;;;;4136911;28;20073;-89